createdAt,value
2023-02-13T00:00:02.435Z,5.23
2023-02-13T00:02:29.950Z,5.29
2023-02-13T00:04:57.429Z,5.24
2023-02-13T00:07:24.916Z,5.30
2023-02-13T00:09:52.379Z,5.31
2023-02-13T00:12:19.926Z,5.38
2023-02-13T00:14:47.409Z,5.39
2023-02-13T00:17:16.389Z,5.40
2023-02-13T00:19:43.954Z,5.39
2023-02-13T00:22:11.695Z,5.26
2023-02-13T00:24:39.240Z,5.18
2023-02-13T00:27:06.698Z,4.80
2023-02-13T00:29:34.187Z,5.00
2023-02-13T00:32:02.389Z,5.08
2023-02-13T00:34:31.323Z,4.86
2023-02-13T00:36:58.781Z,4.75
2023-02-13T00:39:26.408Z,4.79
2023-02-13T00:41:53.898Z,4.88
2023-02-13T00:44:21.413Z,4.64
2023-02-13T00:46:48.926Z,4.89
2023-02-13T00:49:16.418Z,4.98
2023-02-13T00:51:45.391Z,4.69
2023-02-13T00:54:12.882Z,4.76
2023-02-13T00:56:40.516Z,4.25
2023-02-13T00:59:08.589Z,4.41
2023-02-13T01:01:36.100Z,4.40
2023-02-13T01:04:04.013Z,4.60
2023-02-13T01:06:31.522Z,4.71
2023-02-13T01:09:00.384Z,4.74
2023-02-13T01:11:27.925Z,4.75
2023-02-13T01:13:55.401Z,4.66
2023-02-13T01:16:23.000Z,4.66
2023-02-13T01:18:50.547Z,4.65
2023-02-13T01:21:19.960Z,4.64
2023-02-13T01:23:47.971Z,4.64
2023-02-13T01:26:19.542Z,4.65
2023-02-13T01:28:47.288Z,4.62
2023-02-13T01:31:15.126Z,4.61
2023-02-13T01:33:42.698Z,4.60
2023-02-13T01:36:12.360Z,4.53
2023-02-13T01:38:40.031Z,4.50
2023-02-13T01:41:08.304Z,4.35
2023-02-13T01:43:50.059Z,4.57
2023-02-13T01:46:20.326Z,4.48
2023-02-13T01:48:50.488Z,4.40
2023-02-13T01:51:21.280Z,4.39
2023-02-13T01:53:53.542Z,4.43
2023-02-13T01:56:26.478Z,4.36
2023-02-13T01:58:59.221Z,4.28
2023-02-13T02:01:27.773Z,4.21
2023-02-13T02:03:59.634Z,4.18
2023-02-13T02:06:29.302Z,4.12
2023-02-13T02:09:01.687Z,3.85
2023-02-13T02:11:36.463Z,3.97
2023-02-13T02:14:05.505Z,4.17
2023-02-13T02:16:33.840Z,3.66
2023-02-13T02:19:03.190Z,3.50
2023-02-13T02:21:54.205Z,3.23
2023-02-13T02:24:55.363Z,2.87
2023-02-13T02:28:10.678Z,3.11
2023-02-13T02:31:32.360Z,2.75
2023-02-13T02:34:15.886Z,3.16
2023-02-13T02:36:59.817Z,3.47
2023-02-13T02:39:37.166Z,3.50
2023-02-13T02:42:16.594Z,3.66
2023-02-13T02:44:52.220Z,3.64
2023-02-13T02:47:42.717Z,3.59
2023-02-13T02:50:24.719Z,3.41
2023-02-13T02:53:04.240Z,3.34
2023-02-13T02:55:39.821Z,3.35
2023-02-13T02:58:32.493Z,3.38
2023-02-13T03:01:19.613Z,3.36
2023-02-13T03:04:06.173Z,3.43
2023-02-13T03:06:41.202Z,3.46
2023-02-13T03:09:31.429Z,3.45
2023-02-13T03:12:17.074Z,3.39
2023-02-13T03:14:45.208Z,3.54
2023-02-13T03:17:33.679Z,3.07
2023-02-13T03:20:30.847Z,2.87
2023-02-13T03:23:14.857Z,3.16
2023-02-13T03:26:21.666Z,3.49
2023-02-13T03:29:15.769Z,3.40
2023-02-13T03:31:53.889Z,3.61
2023-02-13T03:34:23.929Z,3.74
2023-02-13T03:37:17.769Z,3.42
2023-02-13T03:39:53.507Z,3.35
2023-02-13T03:42:28.064Z,3.44
2023-02-13T03:45:17.527Z,3.57
2023-02-13T03:47:46.361Z,3.85
2023-02-13T03:50:14.975Z,3.95
2023-02-13T03:52:49.348Z,4.07
2023-02-13T03:55:37.720Z,4.09
2023-02-13T03:58:27.279Z,4.16
2023-02-13T04:00:59.719Z,3.97
2023-02-13T04:03:32.733Z,4.23
2023-02-13T04:06:05.663Z,4.22
2023-02-13T04:08:33.306Z,3.60
2023-02-13T04:11:09.677Z,3.67
2023-02-13T04:13:43.734Z,3.71
2023-02-13T04:16:16.244Z,4.21
2023-02-13T04:18:45.478Z,4.20
2023-02-13T04:21:12.929Z,4.24
2023-02-13T04:23:40.398Z,4.30
2023-02-13T04:26:17.434Z,4.52
2023-02-13T04:28:44.932Z,4.58
2023-02-13T04:31:12.559Z,4.48
2023-02-13T04:33:40.129Z,4.35
2023-02-13T04:36:08.308Z,4.61
2023-02-13T04:38:35.753Z,4.32
2023-02-13T04:41:03.289Z,4.36
2023-02-13T04:43:32.056Z,4.66
2023-02-13T04:45:59.529Z,4.76
2023-02-13T04:48:27.166Z,4.79
2023-02-13T04:50:54.657Z,4.82
2023-02-13T04:53:22.130Z,4.93
2023-02-13T04:55:49.633Z,5.03
2023-02-13T04:58:17.093Z,5.04
2023-02-13T05:00:45.968Z,5.12
2023-02-13T05:03:14.511Z,5.03
2023-02-13T05:05:42.250Z,5.10
2023-02-13T05:08:10.116Z,5.02
2023-02-13T05:10:38.136Z,4.92
2023-02-13T05:13:05.670Z,5.05
2023-02-13T05:15:33.534Z,4.82
2023-02-13T05:18:02.345Z,4.92
2023-02-13T05:20:29.868Z,4.94
2023-02-13T05:23:14.764Z,5.07
2023-02-13T05:25:43.709Z,4.89
2023-02-13T05:28:31.381Z,4.99
2023-02-13T05:30:59.356Z,5.07
2023-02-13T05:33:28.496Z,5.14
2023-02-13T05:35:55.984Z,5.25
2023-02-13T05:38:23.457Z,5.28
2023-02-13T05:40:50.933Z,5.36
2023-02-13T05:43:18.469Z,5.39
2023-02-13T05:45:46.042Z,5.39
2023-02-13T05:48:13.550Z,5.23
2023-02-13T05:50:42.349Z,5.34
2023-02-13T05:53:09.856Z,4.95
2023-02-13T05:55:37.314Z,5.22
2023-02-13T05:58:04.793Z,5.36
2023-02-13T06:00:32.268Z,5.41
2023-02-13T06:02:59.773Z,5.51
2023-02-13T06:05:27.397Z,5.50
2023-02-13T06:07:56.211Z,5.49
2023-02-13T06:10:23.689Z,5.55
2023-02-13T06:12:51.171Z,5.62
2023-02-13T06:15:18.937Z,5.59
2023-02-13T06:17:46.434Z,5.56
2023-02-13T06:20:14.091Z,5.60
2023-02-13T06:22:41.549Z,5.63
2023-02-13T06:25:10.413Z,5.69
2023-02-13T06:27:37.898Z,5.75
2023-02-13T06:30:05.871Z,5.49
2023-02-13T06:32:33.346Z,5.69
2023-02-13T06:35:00.823Z,5.70
2023-02-13T06:37:28.530Z,5.84
2023-02-13T06:39:56.018Z,5.85
2023-02-13T06:42:24.843Z,5.92
2023-02-13T06:44:52.336Z,6.00
2023-02-13T06:47:19.797Z,6.05
2023-02-13T06:49:47.275Z,6.04
2023-02-13T06:52:14.758Z,6.05
2023-02-13T06:54:47.809Z,6.14
2023-02-13T06:57:16.049Z,6.19
2023-02-13T06:59:44.908Z,6.22
2023-02-13T07:02:13.369Z,6.30
2023-02-13T07:04:41.050Z,6.40
2023-02-13T07:07:08.526Z,6.42
2023-02-13T07:09:36.002Z,6.39
2023-02-13T07:12:04.660Z,6.38
2023-02-13T07:14:32.143Z,6.36
2023-02-13T07:17:01.020Z,6.45
2023-02-13T07:19:28.465Z,6.52
2023-02-13T07:21:55.910Z,6.59
2023-02-13T07:24:23.401Z,5.24
2023-02-13T07:26:50.890Z,6.04
2023-02-13T07:29:18.363Z,6.36
2023-02-13T07:31:45.843Z,6.51
2023-02-13T07:34:14.768Z,6.63
2023-02-13T07:36:42.200Z,6.61
2023-02-13T07:39:09.886Z,6.58
2023-02-13T07:41:37.365Z,6.40
2023-02-13T07:44:04.936Z,6.37
2023-02-13T07:46:32.392Z,6.63
2023-02-13T07:48:59.837Z,6.83
2023-02-13T07:51:29.103Z,6.96
2023-02-13T07:53:57.705Z,6.85
2023-02-13T07:56:25.318Z,6.87
2023-02-13T07:58:52.772Z,6.67
2023-02-13T08:01:20.665Z,6.49
2023-02-13T08:03:51.682Z,6.98
2023-02-13T08:06:20.221Z,7.12
2023-02-13T08:08:49.028Z,7.20
2023-02-13T08:11:42.876Z,7.58
2023-02-13T08:14:10.380Z,7.58
2023-02-13T08:16:37.873Z,7.77
2023-02-13T08:19:05.338Z,7.84
2023-02-13T08:21:32.930Z,8.09
2023-02-13T08:24:01.890Z,7.90
2023-02-13T08:26:31.892Z,8.15
2023-02-13T08:28:59.484Z,8.40
2023-02-13T08:31:27.393Z,8.40
2023-02-13T08:33:54.988Z,8.34
2023-02-13T08:36:22.440Z,8.35
2023-02-13T08:38:50.285Z,8.48
2023-02-13T08:41:20.868Z,8.55
2023-02-13T08:43:48.741Z,8.94
2023-02-13T08:46:16.350Z,8.86
2023-02-13T08:48:44.069Z,8.78
2023-02-13T08:51:13.704Z,8.88
2023-02-13T08:53:42.281Z,9.10
2023-02-13T08:56:10.572Z,9.13
2023-02-13T08:58:39.651Z,9.16
2023-02-13T09:01:08.728Z,9.34
2023-02-13T09:03:37.152Z,9.52
2023-02-13T09:06:05.147Z,9.29
2023-02-13T09:08:32.730Z,9.20
2023-02-13T09:11:02.331Z,9.00
2023-02-13T09:13:30.409Z,9.15
2023-02-13T09:16:01.475Z,9.48
2023-02-13T09:18:29.735Z,9.55
2023-02-13T09:21:01.309Z,9.84
2023-02-13T09:23:32.322Z,10.06
2023-02-13T09:26:01.626Z,10.08
2023-02-13T09:28:29.375Z,10.30
2023-02-13T09:30:57.030Z,10.59
2023-02-13T09:33:26.749Z,10.95
2023-02-13T09:35:54.193Z,11.21
2023-02-13T09:38:21.638Z,11.38
2023-02-13T09:40:52.444Z,11.02
2023-02-13T09:43:28.519Z,10.90
2023-02-13T09:45:59.913Z,10.96
2023-02-13T09:48:31.971Z,11.00
2023-02-13T09:51:00.376Z,11.13
2023-02-13T09:53:33.311Z,11.18
2023-02-13T09:56:10.087Z,11.09
2023-02-13T09:58:44.132Z,10.93
2023-02-13T10:01:21.096Z,11.19
2023-02-13T10:03:58.558Z,11.59
2023-02-13T10:06:31.810Z,11.82
2023-02-13T10:09:08.972Z,12.19
2023-02-13T10:11:54.418Z,12.29
2023-02-13T10:14:28.092Z,12.40
2023-02-13T10:17:00.859Z,11.90
2023-02-13T10:19:36.864Z,11.91
2023-02-13T10:22:08.529Z,12.13
2023-02-13T10:24:41.038Z,12.47
2023-02-13T10:27:20.817Z,12.46
2023-02-13T10:30:09.381Z,12.48
2023-02-13T10:32:43.956Z,12.39
2023-02-13T10:35:21.731Z,12.55
2023-02-13T10:37:51.982Z,12.46
2023-02-13T10:40:20.571Z,12.56
2023-02-13T10:42:57.519Z,12.65
2023-02-13T10:45:40.230Z,12.56
2023-02-13T10:48:20.605Z,12.56
2023-02-13T10:51:01.710Z,12.77
2023-02-13T10:53:44.269Z,12.95
2023-02-13T10:56:23.397Z,12.98
2023-02-13T10:59:05.815Z,13.24
2023-02-13T11:01:40.655Z,13.27
2023-02-13T11:04:10.702Z,13.18
2023-02-13T11:06:44.069Z,13.48
2023-02-13T11:09:13.343Z,13.59
2023-02-13T11:11:43.262Z,13.38
2023-02-13T11:14:16.247Z,13.17
2023-02-13T11:16:55.133Z,12.97
2023-02-13T11:19:27.733Z,12.81
2023-02-13T11:21:59.978Z,12.37
2023-02-13T11:24:29.441Z,12.54
2023-02-13T11:27:01.726Z,12.47
2023-02-13T11:29:31.441Z,12.37
2023-02-13T11:32:05.965Z,12.47
2023-02-13T11:34:35.128Z,12.63
2023-02-13T11:37:17.832Z,12.54
2023-02-13T11:39:46.876Z,12.61
2023-02-13T11:42:16.456Z,12.67
2023-02-13T11:44:50.285Z,12.88
2023-02-13T11:47:18.041Z,12.73
2023-02-13T11:49:48.077Z,12.82
2023-02-13T11:52:28.615Z,12.97
2023-02-13T11:54:58.852Z,13.03
2023-02-13T11:57:31.317Z,12.96
2023-02-13T12:00:00.150Z,13.04
2023-02-13T12:02:29.423Z,13.27
2023-02-13T12:05:16.337Z,13.36
2023-02-13T12:07:46.019Z,13.26
2023-02-13T12:10:22.217Z,13.45
2023-02-13T12:12:55.642Z,13.44
2023-02-13T12:15:25.556Z,13.17
2023-02-13T12:18:03.822Z,13.04
2023-02-13T12:20:41.051Z,13.02
2023-02-13T12:23:19.616Z,12.84
2023-02-13T12:26:00.138Z,11.82
2023-02-13T12:28:42.603Z,12.03
2023-02-13T12:31:35.586Z,11.79
2023-02-13T12:34:24.829Z,12.06
2023-02-13T12:37:04.624Z,12.19
2023-02-13T12:39:36.184Z,12.13
2023-02-13T12:42:20.812Z,12.25
2023-02-13T12:45:09.652Z,12.17
2023-02-13T12:47:46.343Z,11.93
2023-02-13T12:50:38.437Z,12.07
2023-02-13T12:53:21.139Z,11.93
2023-02-13T12:56:05.777Z,11.84
2023-02-13T12:58:46.568Z,12.44
2023-02-13T13:01:26.972Z,12.54
2023-02-13T13:04:09.370Z,12.94
2023-02-13T13:06:54.908Z,12.63
2023-02-13T13:09:58.280Z,12.16
2023-02-13T13:12:43.730Z,11.21
2023-02-13T13:15:19.900Z,11.15
2023-02-13T13:17:58.935Z,11.74
2023-02-13T13:20:44.268Z,11.87
2023-02-13T13:23:17.714Z,12.19
2023-02-13T13:25:51.983Z,12.14
2023-02-13T13:28:24.566Z,12.13
2023-02-13T13:30:54.037Z,11.98
2023-02-13T13:33:23.273Z,12.05
2023-02-13T13:35:59.686Z,11.39
2023-02-13T13:38:51.673Z,11.02
2023-02-13T13:41:29.493Z,11.30
2023-02-13T13:44:20.849Z,11.06
2023-02-13T13:46:56.680Z,10.93
2023-02-13T13:49:33.153Z,11.13
2023-02-13T13:52:12.545Z,10.93
2023-02-13T13:54:40.034Z,10.83
2023-02-13T13:57:09.268Z,10.59
2023-02-13T13:59:59.923Z,10.51
2023-02-13T14:02:38.517Z,10.25
2023-02-13T14:05:19.589Z,10.46
2023-02-13T14:07:48.646Z,11.14
2023-02-13T14:11:03.202Z,11.64
2023-02-13T14:13:34.064Z,11.80
2023-02-13T14:16:03.560Z,11.78
2023-02-13T14:18:32.238Z,11.78
2023-02-13T14:21:01.923Z,11.67
2023-02-13T14:23:34.597Z,11.78
2023-02-13T14:26:13.855Z,12.04
2023-02-13T14:28:43.307Z,12.16
2023-02-13T14:31:23.297Z,12.04
2023-02-13T14:33:57.102Z,12.01
2023-02-13T14:36:32.192Z,11.56
2023-02-13T14:39:02.275Z,11.07
2023-02-13T14:41:44.338Z,10.59
2023-02-13T14:44:19.017Z,10.35
2023-02-13T14:46:49.269Z,10.33
2023-02-13T14:49:20.246Z,9.80
2023-02-13T14:51:51.134Z,9.28
2023-02-13T14:54:26.836Z,9.04
2023-02-13T14:57:00.378Z,9.14
2023-02-13T14:59:32.641Z,9.48
2023-02-13T15:02:10.104Z,9.87
2023-02-13T15:04:42.726Z,10.37
2023-02-13T15:07:16.602Z,9.84
2023-02-13T15:09:49.237Z,9.75
2023-02-13T15:12:31.305Z,9.14
2023-02-13T15:15:01.221Z,8.68
2023-02-13T15:17:32.765Z,8.99
2023-02-13T15:20:09.785Z,9.04
2023-02-13T15:22:39.429Z,9.51
2023-02-13T15:25:09.270Z,10.15
2023-02-13T15:27:41.614Z,10.24
2023-02-13T15:30:21.771Z,10.10
2023-02-13T15:32:56.840Z,10.25
2023-02-13T15:35:26.868Z,10.30
2023-02-13T15:37:54.833Z,9.90
2023-02-13T15:40:25.836Z,9.83
2023-02-13T15:42:54.177Z,9.74
2023-02-13T15:45:23.733Z,9.41
2023-02-13T15:47:51.975Z,8.60
2023-02-13T15:50:25.356Z,8.78
2023-02-13T15:52:53.955Z,8.80
2023-02-13T15:55:24.294Z,8.97
2023-02-13T15:57:53.046Z,9.31
2023-02-13T16:00:26.228Z,8.63
2023-02-13T16:02:55.864Z,8.50
2023-02-13T16:05:38.893Z,8.39
2023-02-13T16:08:28.231Z,8.34
2023-02-13T16:11:21.961Z,8.15
2023-02-13T16:14:07.135Z,8.32
2023-02-13T16:16:37.349Z,8.01
2023-02-13T16:19:05.241Z,7.78
2023-02-13T16:21:35.846Z,7.72
2023-02-13T16:24:07.492Z,7.33
2023-02-13T16:26:36.326Z,7.71
2023-02-13T16:29:03.935Z,7.81
2023-02-13T16:31:31.515Z,7.74
2023-02-13T16:33:58.989Z,8.18
2023-02-13T16:36:29.820Z,7.98
2023-02-13T16:38:58.617Z,8.48
2023-02-13T16:41:34.054Z,8.62
2023-02-13T16:44:02.359Z,8.70
2023-02-13T16:46:37.248Z,7.99
2023-02-13T16:49:17.229Z,7.88
2023-02-13T16:51:47.760Z,7.65
2023-02-13T16:54:24.016Z,8.08
2023-02-13T16:56:53.620Z,8.35
2023-02-13T16:59:28.893Z,8.03
2023-02-13T17:02:15.431Z,8.37
2023-02-13T17:04:48.002Z,8.37
2023-02-13T17:07:18.769Z,8.32
2023-02-13T17:09:53.658Z,8.32
2023-02-13T17:12:21.615Z,8.46
2023-02-13T17:14:49.118Z,8.45
2023-02-13T17:17:18.922Z,8.20
2023-02-13T17:19:47.006Z,8.02
2023-02-13T17:22:23.442Z,8.36
2023-02-13T17:24:52.343Z,8.30
2023-02-13T17:27:22.425Z,7.78
2023-02-13T17:29:50.239Z,7.49
2023-02-13T17:32:20.250Z,7.61
2023-02-13T17:34:47.756Z,7.79
2023-02-13T17:37:19.376Z,7.89
2023-02-13T17:39:47.935Z,7.66
2023-02-13T17:42:21.010Z,7.45
2023-02-13T17:44:48.498Z,7.62
2023-02-13T17:47:15.981Z,7.82
2023-02-13T17:49:43.485Z,7.30
2023-02-13T17:52:16.688Z,6.63
2023-02-13T17:54:45.189Z,6.29
2023-02-13T17:57:13.413Z,7.13
2023-02-13T17:59:42.649Z,7.25
2023-02-13T18:02:19.195Z,7.64
2023-02-13T18:04:47.285Z,7.89
2023-02-13T18:07:16.653Z,7.98
2023-02-13T18:09:44.197Z,7.31
2023-02-13T18:12:14.819Z,6.78
2023-02-13T18:14:43.821Z,7.06
2023-02-13T18:17:11.767Z,7.31
2023-02-13T18:19:39.996Z,6.97
2023-02-13T18:22:08.761Z,7.26
2023-02-13T18:24:37.724Z,7.33
2023-02-13T18:27:07.333Z,6.78
2023-02-13T18:29:36.171Z,6.67
2023-02-13T18:32:08.091Z,6.81
2023-02-13T18:34:37.766Z,6.87
2023-02-13T18:37:06.952Z,7.05
2023-02-13T18:39:34.651Z,7.19
2023-02-13T18:42:02.493Z,7.33
2023-02-13T18:44:29.977Z,7.05
2023-02-13T18:46:57.766Z,6.98
2023-02-13T18:49:26.952Z,7.10
2023-02-13T18:51:54.478Z,7.39
2023-02-13T18:54:22.164Z,7.55
2023-02-13T18:56:49.966Z,7.45
2023-02-13T18:59:18.485Z,6.67
2023-02-13T19:01:46.289Z,6.63
2023-02-13T19:04:13.896Z,6.99
2023-02-13T19:06:44.016Z,6.94
2023-02-13T19:09:11.996Z,6.34
2023-02-13T19:11:40.752Z,6.70
2023-02-13T19:14:08.585Z,6.84
2023-02-13T19:16:36.795Z,6.97
2023-02-13T19:19:06.188Z,6.73
2023-02-13T19:21:36.166Z,7.06
2023-02-13T19:24:07.673Z,6.83
2023-02-13T19:26:35.697Z,6.66
2023-02-13T19:29:03.238Z,6.95
2023-02-13T19:31:32.629Z,6.54
2023-02-13T19:34:01.348Z,6.58
2023-02-13T19:36:29.917Z,6.01
2023-02-13T19:38:59.544Z,6.23
2023-02-13T19:41:29.020Z,5.73
2023-02-13T19:43:57.193Z,6.02
2023-02-13T19:46:27.727Z,6.16
2023-02-13T19:48:55.413Z,5.72
2023-02-13T19:51:25.118Z,5.93
2023-02-13T19:53:56.570Z,6.05
2023-02-13T19:56:24.439Z,5.69
2023-02-13T19:58:53.259Z,5.62
2023-02-13T20:01:22.610Z,6.06
2023-02-13T20:03:50.207Z,6.41
2023-02-13T20:06:19.832Z,6.64
2023-02-13T20:08:47.733Z,6.43
2023-02-13T20:11:17.036Z,6.33
2023-02-13T20:13:44.789Z,6.56
2023-02-13T20:16:16.339Z,6.76
2023-02-13T20:18:44.126Z,6.42
2023-02-13T20:21:13.814Z,6.27
2023-02-13T20:23:41.992Z,6.27
2023-02-13T20:26:13.658Z,6.94
2023-02-13T20:28:42.471Z,7.29
2023-02-13T20:31:11.646Z,7.41
2023-02-13T20:33:41.183Z,7.60
2023-02-13T20:36:10.360Z,7.67
2023-02-13T20:38:37.872Z,7.65
2023-02-13T20:41:09.567Z,7.49
2023-02-13T20:43:37.993Z,7.14
2023-02-13T20:46:05.930Z,6.52
2023-02-13T20:48:35.848Z,6.09
2023-02-13T20:51:06.898Z,6.50
2023-02-13T20:53:34.855Z,6.46
2023-02-13T20:56:04.743Z,6.48
2023-02-13T20:58:32.621Z,6.23
2023-02-13T21:01:01.007Z,6.17
2023-02-13T21:03:28.774Z,6.43
2023-02-13T21:05:56.299Z,6.57
2023-02-13T21:08:25.111Z,6.68
2023-02-13T21:10:52.575Z,6.80
2023-02-13T21:13:20.113Z,6.33
2023-02-13T21:15:50.487Z,6.21
2023-02-13T21:18:19.800Z,6.44
2023-02-13T21:20:49.805Z,6.33
2023-02-13T21:23:17.281Z,6.11
2023-02-13T21:25:46.135Z,6.26
2023-02-13T21:28:13.626Z,6.13
2023-02-13T21:30:41.152Z,5.92
2023-02-13T21:33:08.641Z,5.76
2023-02-13T21:35:36.190Z,5.52
2023-02-13T21:38:03.643Z,5.69
2023-02-13T21:40:31.131Z,6.02
2023-02-13T21:42:59.950Z,6.23
2023-02-13T21:45:27.519Z,6.28
2023-02-13T21:47:55.742Z,6.59
2023-02-13T21:50:23.601Z,6.10
2023-02-13T21:52:51.100Z,5.85
2023-02-13T21:55:18.757Z,6.12
2023-02-13T21:57:46.230Z,6.33
2023-02-13T22:00:16.575Z,6.63
2023-02-13T22:02:44.069Z,6.67
2023-02-13T22:05:11.584Z,6.40
2023-02-13T22:07:53.013Z,6.16
2023-02-13T22:10:20.477Z,6.32
2023-02-13T22:12:51.947Z,6.70
2023-02-13T22:15:20.871Z,6.34
2023-02-13T22:17:48.437Z,6.13
2023-02-13T22:20:16.085Z,6.40
2023-02-13T22:22:43.679Z,6.78
2023-02-13T22:25:11.391Z,6.33
2023-02-13T22:27:38.874Z,6.69
2023-02-13T22:30:08.931Z,6.97
2023-02-13T22:32:39.714Z,6.30
2023-02-13T22:35:09.447Z,5.96
2023-02-13T22:37:37.486Z,5.62
2023-02-13T22:40:06.530Z,5.70
2023-02-13T22:42:33.986Z,5.93
2023-02-13T22:45:01.459Z,6.11
2023-02-13T22:47:30.097Z,6.08
2023-02-13T22:49:58.903Z,6.43
2023-02-13T22:52:26.337Z,6.04
2023-02-13T22:54:53.791Z,6.43
2023-02-13T22:57:21.227Z,6.41
2023-02-13T22:59:48.686Z,6.53
2023-02-13T23:02:16.136Z,6.12
2023-02-13T23:04:43.714Z,6.09
2023-02-13T23:07:15.036Z,5.81
2023-02-13T23:09:42.480Z,6.12
2023-02-13T23:12:27.545Z,6.41
2023-02-13T23:14:56.665Z,6.27
2023-02-13T23:17:42.006Z,6.30
2023-02-13T23:20:10.814Z,6.38
2023-02-13T23:22:39.657Z,6.39
2023-02-13T23:25:07.892Z,6.18
2023-02-13T23:27:36.856Z,6.48
2023-02-13T23:30:05.921Z,6.75
2023-02-13T23:32:33.477Z,6.84
2023-02-13T23:35:01.099Z,6.98
2023-02-13T23:37:28.714Z,6.57
2023-02-13T23:39:57.546Z,6.57
2023-02-13T23:42:25.008Z,6.50
2023-02-13T23:44:52.478Z,6.32
2023-02-13T23:47:19.957Z,5.98
2023-02-13T23:49:47.438Z,5.72
2023-02-13T23:52:14.906Z,5.84
2023-02-13T23:54:42.385Z,6.19
2023-02-13T23:57:11.824Z,5.97
2023-02-13T23:59:39.332Z,5.75
